sensor_id;sensor_type;location;lat;lon;timestamp;noise_LAeq;noise_LA_min;noise_LA_max;noise_LA01;noise_LA95
71230;Laerm;57282;52.514;13.458;2022-07-01T00:00:19;46.39;34.39;61.88;;
71230;Laerm;57282;52.514;13.458;2022-07-01T00:02:46;60.87;33.81;78.30;;
71230;Laerm;57282;52.514;13.458;2022-07-01T00:05:13;57.79;37.53;74.16;;
71230;Laerm;57282;52.514;13.458;2022-07-01T00:07:39;60.53;34.99;74.94;;
71230;Laerm;57282;52.514;13.458;2022-07-01T00:10:07;52.12;33.25;68.04;;
71230;Laerm;57282;52.514;13.458;2022-07-01T00:12:35;51.94;33.99;70.03;;
71230;Laerm;57282;52.514;13.458;2022-07-01T00:15:02;47.94;33.86;70.50;;
71230;Laerm;57282;52.514;13.458;2022-07-01T00:17:30;56.24;34.64;71.70;;
71230;Laerm;57282;52.514;13.458;2022-07-01T00:19:57;58.15;34.37;72.59;;
71230;Laerm;57282;52.514;13.458;2022-07-01T00:22:23;55.61;34.27;74.27;;
71230;Laerm;57282;52.514;13.458;2022-07-01T00:24:50;57.12;34.02;71.69;;
71230;Laerm;57282;52.514;13.458;2022-07-01T00:27:17;55.90;31.74;83.56;;
71230;Laerm;57282;52.514;13.458;2022-07-01T00:29:45;49.55;32.49;78.90;;
71230;Laerm;57282;52.514;13.458;2022-07-01T00:32:11;39.52;32.22;49.81;;
71230;Laerm;57282;52.514;13.458;2022-07-01T00:34:39;55.43;32.00;74.15;;
71230;Laerm;57282;52.514;13.458;2022-07-01T00:37:05;37.56;32.02;50.62;;
71230;Laerm;57282;52.514;13.458;2022-07-01T00:39:32;37.94;32.52;48.32;;
71230;Laerm;57282;52.514;13.458;2022-07-01T00:42:01;38.02;32.38;49.55;;
71230;Laerm;57282;52.514;13.458;2022-07-01T00:44:29;52.47;32.06;73.44;;
71230;Laerm;57282;52.514;13.458;2022-07-01T00:47:01;37.12;32.11;46.02;;
71230;Laerm;57282;52.514;13.458;2022-07-01T00:49:29;59.81;33.04;78.74;;
71230;Laerm;57282;52.514;13.458;2022-07-01T00:51:56;61.97;33.43;81.31;;
71230;Laerm;57282;52.514;13.458;2022-07-01T00:54:23;57.25;32.83;76.61;;
71230;Laerm;57282;52.514;13.458;2022-07-01T00:56:50;52.73;32.06;70.00;;
71230;Laerm;57282;52.514;13.458;2022-07-01T00:59:17;57.14;32.23;74.58;;
71230;Laerm;57282;52.514;13.458;2022-07-01T01:01:43;61.39;32.17;77.86;;
71230;Laerm;57282;52.514;13.458;2022-07-01T01:04:12;59.15;32.58;76.78;;
71230;Laerm;57282;52.514;13.458;2022-07-01T01:06:38;56.92;32.24;71.59;;
71230;Laerm;57282;52.514;13.458;2022-07-01T01:09:05;55.78;32.29;74.24;;
71230;Laerm;57282;52.514;13.458;2022-07-01T01:11:31;54.28;33.49;70.46;;
71230;Laerm;57282;52.514;13.458;2022-07-01T01:13:58;53.62;32.54;68.61;;
71230;Laerm;57282;52.514;13.458;2022-07-01T01:16:25;59.60;31.99;76.48;;
71230;Laerm;57282;52.514;13.458;2022-07-01T01:18:52;58.11;33.31;73.27;;
71230;Laerm;57282;52.514;13.458;2022-07-01T01:21:21;57.38;32.62;75.07;;
71230;Laerm;57282;52.514;13.458;2022-07-01T01:23:47;38.03;31.20;54.06;;
71230;Laerm;57282;52.514;13.458;2022-07-01T01:26:19;45.36;33.56;60.62;;
71230;Laerm;57282;52.514;13.458;2022-07-01T01:28:47;39.95;32.29;51.95;;
71230;Laerm;57282;52.514;13.458;2022-07-01T01:31:14;58.85;32.26;72.57;;
71230;Laerm;57282;52.514;13.458;2022-07-01T01:33:41;58.11;32.70;78.37;;
71230;Laerm;57282;52.514;13.458;2022-07-01T01:36:08;41.27;32.33;57.39;;
71230;Laerm;57282;52.514;13.458;2022-07-01T01:38:36;58.08;33.00;74.47;;
71230;Laerm;57282;52.514;13.458;2022-07-01T01:41:04;56.07;32.23;72.34;;
71230;Laerm;57282;52.514;13.458;2022-07-01T01:43:31;55.33;33.45;71.59;;
71230;Laerm;57282;52.514;13.458;2022-07-01T01:46:01;58.98;32.95;80.44;;
71230;Laerm;57282;52.514;13.458;2022-07-01T01:48:28;53.00;32.85;70.52;;
71230;Laerm;57282;52.514;13.458;2022-07-01T01:50:55;59.41;31.99;75.69;;
71230;Laerm;57282;52.514;13.458;2022-07-01T01:53:21;59.11;35.64;77.57;;
71230;Laerm;57282;52.514;13.458;2022-07-01T01:55:50;45.81;32.47;67.93;;
71230;Laerm;57282;52.514;13.458;2022-07-01T01:58:16;60.52;33.70;83.40;;
71230;Laerm;57282;52.514;13.458;2022-07-01T02:00:43;60.38;35.14;75.20;;
71230;Laerm;57282;52.514;13.458;2022-07-01T02:03:10;48.04;33.84;65.33;;
71230;Laerm;57282;52.514;13.458;2022-07-01T02:05:37;53.74;32.66;70.05;;
71230;Laerm;57282;52.514;13.458;2022-07-01T02:08:04;44.08;31.84;61.40;;
71230;Laerm;57282;52.514;13.458;2022-07-01T02:10:31;55.32;33.37;74.29;;
71230;Laerm;57282;52.514;13.458;2022-07-01T02:12:59;55.66;33.61;71.88;;
71230;Laerm;57282;52.514;13.458;2022-07-01T02:15:26;42.84;33.50;54.83;;
71230;Laerm;57282;52.514;13.458;2022-07-01T02:17:52;54.72;32.84;73.93;;
71230;Laerm;57282;52.514;13.458;2022-07-01T02:20:22;54.08;32.78;71.07;;
71230;Laerm;57282;52.514;13.458;2022-07-01T02:22:49;39.06;32.53;48.66;;
71230;Laerm;57282;52.514;13.458;2022-07-01T02:25:17;56.94;33.33;76.05;;
71230;Laerm;57282;52.514;13.458;2022-07-01T02:27:44;39.48;33.58;49.33;;
71230;Laerm;57282;52.514;13.458;2022-07-01T02:30:12;37.62;32.99;45.37;;
71230;Laerm;57282;52.514;13.458;2022-07-01T02:32:39;58.64;33.97;77.04;;
71230;Laerm;57282;52.514;13.458;2022-07-01T02:35:06;51.51;35.36;70.09;;
71230;Laerm;57282;52.514;13.458;2022-07-01T02:37:33;55.26;34.60;73.23;;
71230;Laerm;57282;52.514;13.458;2022-07-01T02:40:00;59.55;35.70;76.29;;
71230;Laerm;57282;52.514;13.458;2022-07-01T02:42:26;56.51;34.12;74.93;;
71230;Laerm;57282;52.514;13.458;2022-07-01T02:44:53;49.17;34.92;70.42;;
71230;Laerm;57282;52.514;13.458;2022-07-01T02:47:22;61.54;35.98;77.08;;
71230;Laerm;57282;52.514;13.458;2022-07-01T02:49:49;54.44;35.79;72.52;;
71230;Laerm;57282;52.514;13.458;2022-07-01T02:52:17;44.12;35.65;56.87;;
71230;Laerm;57282;52.514;13.458;2022-07-01T02:54:44;54.65;37.13;73.98;;
71230;Laerm;57282;52.514;13.458;2022-07-01T02:57:10;56.48;35.43;73.11;;
71230;Laerm;57282;52.514;13.458;2022-07-01T02:59:37;50.82;35.47;69.28;;
71230;Laerm;57282;52.514;13.458;2022-07-01T03:02:04;55.60;36.62;72.96;;
71230;Laerm;57282;52.514;13.458;2022-07-01T03:04:32;61.98;37.21;79.05;;
71230;Laerm;57282;52.514;13.458;2022-07-01T03:06:58;52.84;35.86;70.05;;
71230;Laerm;57282;52.514;13.458;2022-07-01T03:09:25;53.24;35.97;69.98;;
71230;Laerm;57282;52.514;13.458;2022-07-01T03:11:52;63.90;39.37;76.56;;
71230;Laerm;57282;52.514;13.458;2022-07-01T03:14:18;55.37;36.76;73.44;;
71230;Laerm;57282;52.514;13.458;2022-07-01T03:16:45;46.67;37.85;58.85;;
71230;Laerm;57282;52.514;13.458;2022-07-01T03:19:13;65.16;38.21;80.42;;
71230;Laerm;57282;52.514;13.458;2022-07-01T03:21:41;56.22;36.61;72.82;;
71230;Laerm;57282;52.514;13.458;2022-07-01T03:24:08;53.09;37.94;71.89;;
71230;Laerm;57282;52.514;13.458;2022-07-01T03:26:34;60.54;36.62;76.66;;
71230;Laerm;57282;52.514;13.458;2022-07-01T03:29:02;55.12;37.03;73.42;;
71230;Laerm;57282;52.514;13.458;2022-07-01T03:31:29;65.36;39.96;83.82;;
71230;Laerm;57282;52.514;13.458;2022-07-01T03:33:56;60.20;38.36;75.61;;
71230;Laerm;57282;52.514;13.458;2022-07-01T03:36:23;62.02;44.57;72.12;;
71230;Laerm;57282;52.514;13.458;2022-07-01T03:38:51;59.90;38.24;73.71;;
71230;Laerm;57282;52.514;13.458;2022-07-01T03:41:18;62.25;38.75;82.98;;
71230;Laerm;57282;52.514;13.458;2022-07-01T03:43:44;63.75;38.42;75.97;;
71230;Laerm;57282;52.514;13.458;2022-07-01T03:46:11;60.25;38.92;75.87;;
71230;Laerm;57282;52.514;13.458;2022-07-01T03:48:38;61.30;37.69;76.91;;
71230;Laerm;57282;52.514;13.458;2022-07-01T03:51:04;63.54;38.99;78.99;;
71230;Laerm;57282;52.514;13.458;2022-07-01T03:53:31;61.49;39.30;74.92;;
71230;Laerm;57282;52.514;13.458;2022-07-01T03:56:16;61.25;40.20;75.83;;
71230;Laerm;57282;52.514;13.458;2022-07-01T03:58:43;61.43;42.37;72.85;;
71230;Laerm;57282;52.514;13.458;2022-07-01T04:01:09;64.09;38.98;85.34;;
71230;Laerm;57282;52.514;13.458;2022-07-01T04:03:36;62.31;39.97;78.02;;
71230;Laerm;57282;52.514;13.458;2022-07-01T04:06:03;63.66;39.37;79.22;;
71230;Laerm;57282;52.514;13.458;2022-07-01T04:08:30;63.50;41.02;79.46;;
71230;Laerm;57282;52.514;13.458;2022-07-01T04:10:57;61.39;42.90;77.13;;
71230;Laerm;57282;52.514;13.458;2022-07-01T04:13:26;59.28;39.45;76.31;;
71230;Laerm;57282;52.514;13.458;2022-07-01T04:15:53;64.68;44.50;79.05;;
71230;Laerm;57282;52.514;13.458;2022-07-01T04:18:20;64.80;40.53;78.45;;
71230;Laerm;57282;52.514;13.458;2022-07-01T04:20:47;63.26;40.57;79.50;;
71230;Laerm;57282;52.514;13.458;2022-07-01T04:23:33;63.92;43.19;78.78;;
71230;Laerm;57282;52.514;13.458;2022-07-01T04:25:59;63.89;45.09;76.47;;
71230;Laerm;57282;52.514;13.458;2022-07-01T04:28:27;60.79;42.37;75.17;;
71230;Laerm;57282;52.514;13.458;2022-07-01T04:30:54;65.13;42.89;77.21;;
71230;Laerm;57282;52.514;13.458;2022-07-01T04:33:21;60.89;43.58;75.71;;
71230;Laerm;57282;52.514;13.458;2022-07-01T04:35:47;64.14;45.03;79.12;;
71230;Laerm;57282;52.514;13.458;2022-07-01T04:38:14;68.07;41.32;83.06;;
71230;Laerm;57282;52.514;13.458;2022-07-01T04:40:40;57.80;40.13;74.62;;
71230;Laerm;57282;52.514;13.458;2022-07-01T04:43:28;60.57;41.89;75.47;;
71230;Laerm;57282;52.514;13.458;2022-07-01T04:45:54;65.80;43.57;78.14;;
71230;Laerm;57282;52.514;13.458;2022-07-01T04:48:21;65.37;43.30;78.92;;
71230;Laerm;57282;52.514;13.458;2022-07-01T04:50:47;64.29;42.70;77.59;;
71230;Laerm;57282;52.514;13.458;2022-07-01T04:53:14;66.26;44.62;78.26;;
71230;Laerm;57282;52.514;13.458;2022-07-01T04:55:41;62.72;40.78;78.77;;
71230;Laerm;57282;52.514;13.458;2022-07-01T04:58:07;62.82;40.52;75.81;;
71230;Laerm;57282;52.514;13.458;2022-07-01T05:00:35;56.46;40.54;70.68;;
71230;Laerm;57282;52.514;13.458;2022-07-01T05:03:02;64.30;41.34;77.65;;
71230;Laerm;57282;52.514;13.458;2022-07-01T05:05:28;64.01;44.08;76.69;;
71230;Laerm;57282;52.514;13.458;2022-07-01T05:07:55;62.60;41.81;77.26;;
71230;Laerm;57282;52.514;13.458;2022-07-01T05:10:22;62.12;42.41;78.15;;
71230;Laerm;57282;52.514;13.458;2022-07-01T05:12:49;63.39;43.80;79.02;;
71230;Laerm;57282;52.514;13.458;2022-07-01T05:15:15;63.40;42.69;77.92;;
71230;Laerm;57282;52.514;13.458;2022-07-01T05:17:43;64.75;44.44;78.22;;
71230;Laerm;57282;52.514;13.458;2022-07-01T05:20:28;62.95;42.45;74.87;;
71230;Laerm;57282;52.514;13.458;2022-07-01T05:23:11;63.12;43.03;77.76;;
71230;Laerm;57282;52.514;13.458;2022-07-01T05:25:38;55.12;40.86;71.02;;
71230;Laerm;57282;52.514;13.458;2022-07-01T05:28:04;66.00;44.06;77.31;;
71230;Laerm;57282;52.514;13.458;2022-07-01T05:30:31;65.79;45.74;81.29;;
71230;Laerm;57282;52.514;13.458;2022-07-01T05:32:59;66.15;45.06;76.62;;
71230;Laerm;57282;52.514;13.458;2022-07-01T05:35:26;64.11;43.55;77.15;;
71230;Laerm;57282;52.514;13.458;2022-07-01T05:37:52;60.06;43.92;75.05;;
71230;Laerm;57282;52.514;13.458;2022-07-01T05:40:19;65.23;45.12;79.05;;
71230;Laerm;57282;52.514;13.458;2022-07-01T05:42:45;65.81;42.07;76.18;;
71230;Laerm;57282;52.514;13.458;2022-07-01T05:45:12;64.27;49.35;74.41;;
71230;Laerm;57282;52.514;13.458;2022-07-01T05:47:39;65.46;44.24;88.05;;
71230;Laerm;57282;52.514;13.458;2022-07-01T05:50:08;65.89;47.49;76.12;;
71230;Laerm;57282;52.514;13.458;2022-07-01T05:52:35;62.65;47.90;73.11;;
71230;Laerm;57282;52.514;13.458;2022-07-01T05:55:02;74.22;64.06;84.15;;
71230;Laerm;57282;52.514;13.458;2022-07-01T05:57:29;66.06;52.90;79.66;;
71230;Laerm;57282;52.514;13.458;2022-07-01T05:59:56;62.35;48.99;74.30;;
71230;Laerm;57282;52.514;13.458;2022-07-01T06:02:22;62.73;44.97;76.33;;
71230;Laerm;57282;52.514;13.458;2022-07-01T06:04:49;61.51;42.43;79.06;;
71230;Laerm;57282;52.514;13.458;2022-07-01T06:07:17;65.33;51.53;76.85;;
71230;Laerm;57282;52.514;13.458;2022-07-01T06:09:43;70.78;62.50;78.16;;
71230;Laerm;57282;52.514;13.458;2022-07-01T06:12:11;71.55;60.07;84.62;;
71230;Laerm;57282;52.514;13.458;2022-07-01T06:14:37;66.02;53.50;75.78;;
71230;Laerm;57282;52.514;13.458;2022-07-01T06:17:04;63.67;44.01;76.91;;
71230;Laerm;57282;52.514;13.458;2022-07-01T06:19:31;60.50;43.35;73.01;;
71230;Laerm;57282;52.514;13.458;2022-07-01T06:21:57;62.84;44.00;75.98;;
71230;Laerm;57282;52.514;13.458;2022-07-01T06:24:25;66.18;43.69;78.17;;
71230;Laerm;57282;52.514;13.458;2022-07-01T06:26:52;65.02;46.39;77.04;;
71230;Laerm;57282;52.514;13.458;2022-07-01T06:29:18;64.08;43.64;78.40;;
71230;Laerm;57282;52.514;13.458;2022-07-01T06:31:45;64.21;44.40;78.08;;
71230;Laerm;57282;52.514;13.458;2022-07-01T06:34:12;65.31;45.91;74.77;;
71230;Laerm;57282;52.514;13.458;2022-07-01T06:36:38;64.42;44.99;77.65;;
71230;Laerm;57282;52.514;13.458;2022-07-01T06:39:05;63.95;43.24;77.25;;
71230;Laerm;57282;52.514;13.458;2022-07-01T06:41:33;64.29;42.60;75.55;;
71230;Laerm;57282;52.514;13.458;2022-07-01T06:44:01;63.69;44.20;76.37;;
71230;Laerm;57282;52.514;13.458;2022-07-01T06:46:30;63.27;44.34;75.03;;
71230;Laerm;57282;52.514;13.458;2022-07-01T06:48:58;64.74;42.85;77.38;;
71230;Laerm;57282;52.514;13.458;2022-07-01T06:51:25;63.37;46.26;76.48;;
71230;Laerm;57282;52.514;13.458;2022-07-01T06:53:52;65.64;51.25;78.87;;
71230;Laerm;57282;52.514;13.458;2022-07-01T06:56:19;65.28;47.41;77.27;;
71230;Laerm;57282;52.514;13.458;2022-07-01T06:58:47;61.99;42.92;80.18;;
71230;Laerm;57282;52.514;13.458;2022-07-01T07:01:13;63.88;43.91;75.32;;
71230;Laerm;57282;52.514;13.458;2022-07-01T07:03:40;64.22;43.95;75.45;;
71230;Laerm;57282;52.514;13.458;2022-07-01T07:06:07;64.23;47.19;74.85;;
71230;Laerm;57282;52.514;13.458;2022-07-01T07:08:33;63.13;45.61;76.90;;
71230;Laerm;57282;52.514;13.458;2022-07-01T07:11:00;62.21;43.78;75.11;;
71230;Laerm;57282;52.514;13.458;2022-07-01T07:13:28;60.83;43.45;78.28;;
71230;Laerm;57282;52.514;13.458;2022-07-01T07:15:56;60.77;42.96;79.14;;
71230;Laerm;57282;52.514;13.458;2022-07-01T07:18:23;61.32;44.42;74.61;;
71230;Laerm;57282;52.514;13.458;2022-07-01T07:20:49;63.37;46.34;78.32;;
71230;Laerm;57282;52.514;13.458;2022-07-01T07:23:16;63.23;47.90;72.49;;
71230;Laerm;57282;52.514;13.458;2022-07-01T07:25:43;62.49;48.35;76.05;;
71230;Laerm;57282;52.514;13.458;2022-07-01T07:28:09;64.75;47.21;77.78;;
71230;Laerm;57282;52.514;13.458;2022-07-01T07:30:37;63.76;46.49;76.17;;
71230;Laerm;57282;52.514;13.458;2022-07-01T07:33:05;64.20;48.17;75.99;;
71230;Laerm;57282;52.514;13.458;2022-07-01T07:35:32;62.74;45.30;77.26;;
71230;Laerm;57282;52.514;13.458;2022-07-01T07:37:58;63.65;45.04;79.14;;
71230;Laerm;57282;52.514;13.458;2022-07-01T07:40:25;64.44;49.25;79.62;;
71230;Laerm;57282;52.514;13.458;2022-07-01T07:42:52;60.39;45.88;73.46;;
71230;Laerm;57282;52.514;13.458;2022-07-01T07:45:20;64.09;45.52;76.87;;
71230;Laerm;57282;52.514;13.458;2022-07-01T07:47:48;62.35;44.50;74.68;;
71230;Laerm;57282;52.514;13.458;2022-07-01T07:50:16;61.52;43.38;75.35;;
71230;Laerm;57282;52.514;13.458;2022-07-01T07:52:43;64.04;44.62;76.97;;
71230;Laerm;57282;52.514;13.458;2022-07-01T07:55:10;63.77;43.96;75.93;;
71230;Laerm;57282;52.514;13.458;2022-07-01T07:57:39;64.76;46.92;76.77;;
71230;Laerm;57282;52.514;13.458;2022-07-01T08:00:09;58.54;43.18;74.02;;
71230;Laerm;57282;52.514;13.458;2022-07-01T08:02:36;62.97;45.12;74.79;;
71230;Laerm;57282;52.514;13.458;2022-07-01T08:05:03;64.76;44.91;86.69;;
71230;Laerm;57282;52.514;13.458;2022-07-01T08:07:34;68.90;64.42;76.15;;
71230;Laerm;57282;52.514;13.458;2022-07-01T08:10:01;68.94;64.95;78.67;;
71230;Laerm;57282;52.514;13.458;2022-07-01T08:12:28;69.09;66.39;76.49;;
71230;Laerm;57282;52.514;13.458;2022-07-01T08:14:54;68.55;64.39;74.92;;
71230;Laerm;57282;52.514;13.458;2022-07-01T08:17:21;68.48;63.04;75.94;;
71230;Laerm;57282;52.514;13.458;2022-07-01T08:19:47;69.74;65.59;77.07;;
71230;Laerm;57282;52.514;13.458;2022-07-01T08:22:15;66.55;44.60;77.81;;
71230;Laerm;57282;52.514;13.458;2022-07-01T08:24:43;64.55;41.91;77.39;;
71230;Laerm;57282;52.514;13.458;2022-07-01T08:27:09;61.64;42.67;75.03;;
71230;Laerm;57282;52.514;13.458;2022-07-01T08:29:38;64.70;43.95;90.22;;
71230;Laerm;57282;52.514;13.458;2022-07-01T08:32:05;66.09;42.23;91.02;;
71230;Laerm;57282;52.514;13.458;2022-07-01T08:34:32;66.38;46.54;81.33;;
71230;Laerm;57282;52.514;13.458;2022-07-01T08:37:00;61.73;45.75;74.61;;
71230;Laerm;57282;52.514;13.458;2022-07-01T08:39:26;64.03;44.98;76.97;;
71230;Laerm;57282;52.514;13.458;2022-07-01T08:41:55;61.82;43.67;73.96;;
71230;Laerm;57282;52.514;13.458;2022-07-01T08:44:21;63.54;45.01;75.48;;
71230;Laerm;57282;52.514;13.458;2022-07-01T08:46:48;63.00;44.40;74.27;;
71230;Laerm;57282;52.514;13.458;2022-07-01T08:49:16;66.39;49.88;83.28;;
71230;Laerm;57282;52.514;13.458;2022-07-01T08:51:43;64.97;50.66;75.41;;
71230;Laerm;57282;52.514;13.458;2022-07-01T08:54:10;62.63;44.06;76.08;;
71230;Laerm;57282;52.514;13.458;2022-07-01T08:56:37;61.63;47.05;76.86;;
71230;Laerm;57282;52.514;13.458;2022-07-01T08:59:21;62.39;43.55;75.96;;
71230;Laerm;57282;52.514;13.458;2022-07-01T09:01:56;60.26;47.92;71.77;;
71230;Laerm;57282;52.514;13.458;2022-07-01T09:04:23;62.93;46.70;73.78;;
71230;Laerm;57282;52.514;13.458;2022-07-01T09:06:51;64.35;46.33;77.49;;
71230;Laerm;57282;52.514;13.458;2022-07-01T09:09:21;62.30;46.51;74.30;;
71230;Laerm;57282;52.514;13.458;2022-07-01T09:11:51;60.52;45.00;73.51;;
71230;Laerm;57282;52.514;13.458;2022-07-01T09:14:24;60.35;43.58;73.59;;
71230;Laerm;57282;52.514;13.458;2022-07-01T09:16:54;68.84;44.76;95.76;;
71230;Laerm;57282;52.514;13.458;2022-07-01T09:19:25;64.11;44.21;78.34;;
71230;Laerm;57282;52.514;13.458;2022-07-01T09:21:54;62.70;45.80;75.92;;
71230;Laerm;57282;52.514;13.458;2022-07-01T09:24:26;64.26;46.62;80.45;;
71230;Laerm;57282;52.514;13.458;2022-07-01T09:26:56;63.16;47.64;73.34;;
71230;Laerm;57282;52.514;13.458;2022-07-01T09:29:30;60.33;41.61;76.73;;
71230;Laerm;57282;52.514;13.458;2022-07-01T09:31:58;65.33;44.02;76.05;;
71230;Laerm;57282;52.514;13.458;2022-07-01T09:34:25;65.08;45.43;80.20;;
71230;Laerm;57282;52.514;13.458;2022-07-01T09:36:54;63.45;45.53;80.18;;
71230;Laerm;57282;52.514;13.458;2022-07-01T09:39:21;66.46;48.81;78.31;;
71230;Laerm;57282;52.514;13.458;2022-07-01T09:41:49;63.79;48.91;76.95;;
71230;Laerm;57282;52.514;13.458;2022-07-01T09:44:15;62.92;45.00;72.95;;
71230;Laerm;57282;52.514;13.458;2022-07-01T09:46:55;64.02;47.45;74.74;;
71230;Laerm;57282;52.514;13.458;2022-07-01T09:49:23;60.51;47.69;71.98;;
71230;Laerm;57282;52.514;13.458;2022-07-01T09:51:50;63.57;49.45;76.12;;
71230;Laerm;57282;52.514;13.458;2022-07-01T09:54:18;62.43;45.63;76.66;;
71230;Laerm;57282;52.514;13.458;2022-07-01T09:56:45;62.62;48.16;72.06;;
71230;Laerm;57282;52.514;13.458;2022-07-01T09:59:11;62.70;47.80;76.07;;
71230;Laerm;57282;52.514;13.458;2022-07-01T10:01:38;62.77;47.11;72.03;;
71230;Laerm;57282;52.514;13.458;2022-07-01T10:04:09;62.35;48.22;73.04;;
71230;Laerm;57282;52.514;13.458;2022-07-01T10:06:56;63.14;45.91;74.79;;
71230;Laerm;57282;52.514;13.458;2022-07-01T10:09:47;65.47;48.74;77.15;;
71230;Laerm;57282;52.514;13.458;2022-07-01T10:12:36;63.91;45.15;79.67;;
71230;Laerm;57282;52.514;13.458;2022-07-01T10:15:08;64.37;51.19;81.05;;
71230;Laerm;57282;52.514;13.458;2022-07-01T10:17:41;63.82;48.38;74.25;;
71230;Laerm;57282;52.514;13.458;2022-07-01T10:20:13;62.52;47.88;79.23;;
71230;Laerm;57282;52.514;13.458;2022-07-01T10:22:42;63.62;47.17;73.36;;
71230;Laerm;57282;52.514;13.458;2022-07-01T10:25:34;63.96;45.54;77.62;;
71230;Laerm;57282;52.514;13.458;2022-07-01T10:28:19;62.01;46.75;73.50;;
71230;Laerm;57282;52.514;13.458;2022-07-01T10:31:01;62.92;47.56;78.51;;
71230;Laerm;57282;52.514;13.458;2022-07-01T10:33:39;64.98;48.79;78.88;;
71230;Laerm;57282;52.514;13.458;2022-07-01T10:36:13;63.62;46.66;77.96;;
71230;Laerm;57282;52.514;13.458;2022-07-01T10:39:11;62.88;45.86;79.94;;
71230;Laerm;57282;52.514;13.458;2022-07-01T10:41:41;62.19;45.73;79.89;;
71230;Laerm;57282;52.514;13.458;2022-07-01T10:44:11;62.36;46.73;75.17;;
71230;Laerm;57282;52.514;13.458;2022-07-01T10:46:40;61.68;49.77;72.68;;
71230;Laerm;57282;52.514;13.458;2022-07-01T10:49:10;63.85;47.31;81.02;;
71230;Laerm;57282;52.514;13.458;2022-07-01T10:51:51;65.50;47.60;78.46;;
71230;Laerm;57282;52.514;13.458;2022-07-01T10:54:47;63.72;47.83;76.26;;
71230;Laerm;57282;52.514;13.458;2022-07-01T10:57:27;62.42;48.50;75.21;;
71230;Laerm;57282;52.514;13.458;2022-07-01T11:00:20;63.94;46.56;79.43;;
71230;Laerm;57282;52.514;13.458;2022-07-01T11:02:43;62.60;45.02;74.86;;
71230;Laerm;57282;52.514;13.458;2022-07-01T11:05:13;62.12;47.38;75.46;;
71230;Laerm;57282;52.514;13.458;2022-07-01T11:07:44;65.01;49.34;78.65;;
71230;Laerm;57282;52.514;13.458;2022-07-01T11:10:14;64.78;50.36;75.11;;
71230;Laerm;57282;52.514;13.458;2022-07-01T11:12:42;64.77;47.32;82.77;;
71230;Laerm;57282;52.514;13.458;2022-07-01T11:15:10;63.21;47.27;75.36;;
71230;Laerm;57282;52.514;13.458;2022-07-01T11:17:42;64.05;48.92;84.60;;
71230;Laerm;57282;52.514;13.458;2022-07-01T11:20:10;63.18;50.24;74.33;;
71230;Laerm;57282;52.514;13.458;2022-07-01T11:22:38;63.20;45.78;76.36;;
71230;Laerm;57282;52.514;13.458;2022-07-01T11:25:09;65.46;44.89;75.27;;
71230;Laerm;57282;52.514;13.458;2022-07-01T11:27:38;65.59;49.04;78.93;;
71230;Laerm;57282;52.514;13.458;2022-07-01T11:30:09;61.01;44.26;79.57;;
71230;Laerm;57282;52.514;13.458;2022-07-01T11:32:39;64.03;49.62;73.31;;
71230;Laerm;57282;52.514;13.458;2022-07-01T11:35:12;65.79;49.23;78.41;;
71230;Laerm;57282;52.514;13.458;2022-07-01T11:38:05;62.07;45.63;73.63;;
71230;Laerm;57282;52.514;13.458;2022-07-01T11:40:51;62.91;46.75;73.86;;
71230;Laerm;57282;52.514;13.458;2022-07-01T11:43:20;65.98;46.83;77.10;;
71230;Laerm;57282;52.514;13.458;2022-07-01T11:45:47;64.87;49.43;74.02;;
71230;Laerm;57282;52.514;13.458;2022-07-01T11:48:38;67.21;47.42;82.31;;
71230;Laerm;57282;52.514;13.458;2022-07-01T11:51:12;64.07;50.79;77.36;;
71230;Laerm;57282;52.514;13.458;2022-07-01T11:53:41;64.56;48.11;75.75;;
71230;Laerm;57282;52.514;13.458;2022-07-01T11:56:10;67.45;49.73;91.89;;
71230;Laerm;57282;52.514;13.458;2022-07-01T11:58:47;63.89;49.41;74.31;;
71230;Laerm;57282;52.514;13.458;2022-07-01T12:01:24;64.49;46.97;75.11;;
71230;Laerm;57282;52.514;13.458;2022-07-01T12:03:51;63.11;47.01;75.12;;
71230;Laerm;57282;52.514;13.458;2022-07-01T12:06:19;63.81;45.64;78.04;;
71230;Laerm;57282;52.514;13.458;2022-07-01T12:08:49;63.67;45.37;73.84;;
71230;Laerm;57282;52.514;13.458;2022-07-01T12:11:18;65.89;47.25;77.90;;
71230;Laerm;57282;52.514;13.458;2022-07-01T12:13:46;64.22;48.16;76.98;;
71230;Laerm;57282;52.514;13.458;2022-07-01T12:16:14;64.13;48.38;74.87;;
71230;Laerm;57282;52.514;13.458;2022-07-01T12:18:52;63.31;46.62;74.29;;
71230;Laerm;57282;52.514;13.458;2022-07-01T12:21:18;66.38;44.88;76.43;;
71230;Laerm;57282;52.514;13.458;2022-07-01T12:24:08;64.19;48.31;77.21;;
71230;Laerm;57282;52.514;13.458;2022-07-01T12:26:51;63.32;46.14;80.14;;
71230;Laerm;57282;52.514;13.458;2022-07-01T12:29:20;65.63;47.52;76.82;;
71230;Laerm;57282;52.514;13.458;2022-07-01T12:31:59;61.82;44.83;72.47;;
71230;Laerm;57282;52.514;13.458;2022-07-01T12:34:40;63.65;49.02;73.83;;
71230;Laerm;57282;52.514;13.458;2022-07-01T12:37:10;64.73;45.17;76.80;;
71230;Laerm;57282;52.514;13.458;2022-07-01T12:39:44;66.66;45.26;82.97;;
71230;Laerm;57282;52.514;13.458;2022-07-01T12:42:22;63.92;50.26;74.01;;
71230;Laerm;57282;52.514;13.458;2022-07-01T12:44:50;63.18;47.83;76.51;;
71230;Laerm;57282;52.514;13.458;2022-07-01T12:47:20;59.95;43.01;73.11;;
71230;Laerm;57282;52.514;13.458;2022-07-01T12:49:47;64.43;46.59;74.48;;
71230;Laerm;57282;52.514;13.458;2022-07-01T12:52:25;64.96;48.57;75.51;;
71230;Laerm;57282;52.514;13.458;2022-07-01T12:54:55;58.60;42.87;75.02;;
71230;Laerm;57282;52.514;13.458;2022-07-01T12:57:31;61.10;44.28;73.24;;
71230;Laerm;57282;52.514;13.458;2022-07-01T12:59:58;62.31;47.00;74.04;;
71230;Laerm;57282;52.514;13.458;2022-07-01T13:02:25;62.98;44.45;74.43;;
71230;Laerm;57282;52.514;13.458;2022-07-01T13:04:51;62.48;47.07;75.74;;
71230;Laerm;57282;52.514;13.458;2022-07-01T13:07:18;63.52;45.09;77.69;;
71230;Laerm;57282;52.514;13.458;2022-07-01T13:09:44;63.41;47.69;78.43;;
71230;Laerm;57282;52.514;13.458;2022-07-01T13:12:11;64.37;45.24;74.84;;
71230;Laerm;57282;52.514;13.458;2022-07-01T13:14:39;64.51;46.03;75.57;;
71230;Laerm;57282;52.514;13.458;2022-07-01T13:17:06;63.48;45.56;74.36;;
71230;Laerm;57282;52.514;13.458;2022-07-01T13:19:33;63.42;50.10;72.76;;
71230;Laerm;57282;52.514;13.458;2022-07-01T13:22:00;62.73;45.31;73.74;;
71230;Laerm;57282;52.514;13.458;2022-07-01T13:24:27;64.47;50.88;74.29;;
71230;Laerm;57282;52.514;13.458;2022-07-01T13:26:53;63.72;47.27;77.10;;
71230;Laerm;57282;52.514;13.458;2022-07-01T13:29:20;64.69;46.22;74.69;;
71230;Laerm;57282;52.514;13.458;2022-07-01T13:31:48;61.37;49.30;74.60;;
71230;Laerm;57282;52.514;13.458;2022-07-01T13:34:14;65.55;48.35;75.78;;
71230;Laerm;57282;52.514;13.458;2022-07-01T13:36:41;64.02;47.89;76.71;;
71230;Laerm;57282;52.514;13.458;2022-07-01T13:39:08;65.50;48.35;78.15;;
71230;Laerm;57282;52.514;13.458;2022-07-01T13:41:35;65.21;47.23;76.19;;